createdAt,value
2023-05-16T00:02:14.477Z,4.68
2023-05-16T00:04:42.462Z,4.45
2023-05-16T00:07:10.136Z,4.40
2023-05-16T00:09:37.685Z,3.92
2023-05-16T00:12:06.034Z,4.05
2023-05-16T00:14:34.785Z,4.60
2023-05-16T00:17:05.007Z,4.35
2023-05-16T00:19:32.968Z,4.80
2023-05-16T00:22:00.753Z,4.03
2023-05-16T00:24:28.335Z,5.05
2023-05-16T00:26:55.934Z,5.07
2023-05-16T00:29:24.587Z,4.32
2023-05-16T00:31:52.162Z,5.30
2023-05-16T00:34:21.458Z,5.38
2023-05-16T00:36:52.013Z,4.45
2023-05-16T00:39:19.738Z,4.13
2023-05-16T00:41:47.715Z,4.88
2023-05-16T00:44:15.857Z,3.65
2023-05-16T00:46:44.136Z,3.80
2023-05-16T00:49:12.978Z,4.18
2023-05-16T00:51:41.000Z,4.15
2023-05-16T00:54:08.658Z,3.83
2023-05-16T00:56:37.100Z,3.83
2023-05-16T00:59:04.874Z,3.60
2023-05-16T01:01:35.213Z,3.15
2023-05-16T01:04:03.724Z,3.72
2023-05-16T01:06:31.604Z,3.40
2023-05-16T01:08:59.670Z,4.00
2023-05-16T01:11:31.728Z,3.95
2023-05-16T01:13:59.200Z,3.88
2023-05-16T01:16:37.944Z,3.67
2023-05-16T01:19:53.389Z,4.03
2023-05-16T01:22:34.747Z,3.80
2023-05-16T01:25:17.583Z,4.05
2023-05-16T01:27:46.118Z,4.38
2023-05-16T01:30:16.732Z,4.50
2023-05-16T01:32:44.961Z,8.35
2023-05-16T01:35:16.197Z,5.55
2023-05-16T01:38:11.606Z,8.52
2023-05-16T01:40:44.608Z,8.45
2023-05-16T01:43:17.259Z,7.90
2023-05-16T01:45:53.772Z,7.88
2023-05-16T01:48:31.405Z,9.88
2023-05-16T01:51:02.549Z,8.40
2023-05-16T01:53:37.712Z,8.00
2023-05-16T01:56:14.129Z,8.48
2023-05-16T01:58:43.527Z,7.45
2023-05-16T02:01:13.600Z,8.00
2023-05-16T02:03:41.629Z,8.70
2023-05-16T02:06:09.369Z,9.98
2023-05-16T02:08:37.036Z,9.35
2023-05-16T02:11:04.692Z,9.40
2023-05-16T02:13:32.491Z,10.52
2023-05-16T02:16:05.673Z,11.95
2023-05-16T02:18:33.551Z,10.25
2023-05-16T02:21:01.372Z,11.10
2023-05-16T02:23:29.010Z,9.60
2023-05-16T02:25:56.604Z,9.27
2023-05-16T02:28:24.233Z,10.07
2023-05-16T02:31:00.117Z,10.90
2023-05-16T02:33:29.070Z,10.15
2023-05-16T02:35:56.685Z,11.18
2023-05-16T02:38:27.447Z,10.15
2023-05-16T02:40:56.719Z,9.35
2023-05-16T02:43:24.280Z,9.55
2023-05-16T02:45:53.226Z,9.15
2023-05-16T02:48:21.083Z,8.30
2023-05-16T02:50:48.671Z,7.68
2023-05-16T02:53:16.316Z,7.88
2023-05-16T02:55:43.962Z,8.38
2023-05-16T02:58:11.481Z,6.93
2023-05-16T03:00:39.092Z,8.75
2023-05-16T03:03:06.689Z,7.82
2023-05-16T03:05:34.376Z,7.40
2023-05-16T03:08:01.972Z,7.25
2023-05-16T03:10:29.702Z,7.40
2023-05-16T03:12:57.654Z,6.82
2023-05-16T03:15:25.522Z,7.18
2023-05-16T03:17:53.190Z,7.22
2023-05-16T03:20:21.237Z,8.32
2023-05-16T03:22:49.020Z,6.47
2023-05-16T03:25:16.700Z,6.93
2023-05-16T03:27:44.211Z,5.97
2023-05-16T03:30:13.178Z,6.53
2023-05-16T03:32:41.011Z,6.05
2023-05-16T03:35:09.054Z,5.72
2023-05-16T03:37:37.340Z,5.13
2023-05-16T03:40:05.911Z,5.10
2023-05-16T03:42:33.626Z,4.82
2023-05-16T03:45:01.353Z,4.32
2023-05-16T03:47:32.042Z,4.68
2023-05-16T03:49:59.852Z,4.65
2023-05-16T03:52:27.370Z,4.57
2023-05-16T03:54:54.945Z,3.65
2023-05-16T03:57:22.694Z,4.63
2023-05-16T03:59:50.293Z,4.78
2023-05-16T04:02:18.853Z,4.32
2023-05-16T04:04:46.961Z,3.60
2023-05-16T04:07:14.477Z,2.67
2023-05-16T04:09:42.076Z,3.17
2023-05-16T04:12:09.605Z,4.53
2023-05-16T04:14:37.131Z,4.28
2023-05-16T04:17:05.244Z,3.88
2023-05-16T04:19:32.882Z,4.00
2023-05-16T04:22:00.481Z,4.15
2023-05-16T04:24:29.136Z,4.30
2023-05-16T04:26:56.957Z,3.90
2023-05-16T04:29:24.434Z,4.43
2023-05-16T04:31:52.382Z,3.83
2023-05-16T04:34:20.058Z,4.03
2023-05-16T04:36:47.766Z,4.40
2023-05-16T04:39:15.277Z,3.92
2023-05-16T04:41:43.221Z,4.35
2023-05-16T04:44:11.330Z,4.03
2023-05-16T04:46:39.444Z,4.75
2023-05-16T04:49:07.086Z,4.28
2023-05-16T04:51:35.275Z,4.18
2023-05-16T04:54:03.053Z,4.40
2023-05-16T04:56:30.809Z,3.97
2023-05-16T04:58:58.352Z,3.88
2023-05-16T05:01:25.981Z,3.80
2023-05-16T05:03:53.714Z,3.28
2023-05-16T05:06:21.612Z,4.30
2023-05-16T05:08:49.358Z,4.20
2023-05-16T05:11:17.586Z,5.07
2023-05-16T05:13:45.922Z,3.55
2023-05-16T05:16:13.726Z,2.85
2023-05-16T05:18:41.349Z,3.08
2023-05-16T05:21:08.942Z,3.70
2023-05-16T05:23:36.500Z,3.58
2023-05-16T05:26:04.252Z,3.55
2023-05-16T05:28:31.861Z,3.17
2023-05-16T05:30:59.706Z,2.60
2023-05-16T05:33:29.651Z,2.95
2023-05-16T05:35:57.918Z,2.75
2023-05-16T05:38:25.891Z,2.50
2023-05-16T05:40:53.763Z,2.17
2023-05-16T05:43:21.349Z,2.15
2023-05-16T05:45:49.098Z,1.90
2023-05-16T05:48:16.912Z,2.38
2023-05-16T05:50:44.594Z,1.83
2023-05-16T05:53:12.269Z,1.80
2023-05-16T05:55:42.331Z,1.65
2023-05-16T05:58:09.981Z,1.67
2023-05-16T06:00:38.179Z,1.52
2023-05-16T06:03:06.209Z,1.63
2023-05-16T06:05:33.857Z,1.63
2023-05-16T06:08:01.464Z,2.03
2023-05-16T06:10:29.964Z,1.48
2023-05-16T06:12:57.718Z,1.65
2023-05-16T06:15:26.914Z,1.75
2023-05-16T06:17:54.732Z,1.65
2023-05-16T06:20:22.480Z,1.30
2023-05-16T06:22:49.987Z,1.30
2023-05-16T06:25:17.768Z,1.42
2023-05-16T06:27:45.401Z,1.70
2023-05-16T06:30:13.294Z,1.73
2023-05-16T06:32:41.704Z,1.40
2023-05-16T06:35:09.983Z,1.45
2023-05-16T06:37:37.674Z,1.58
2023-05-16T06:40:05.932Z,2.03
2023-05-16T06:42:34.058Z,1.40
2023-05-16T06:45:01.815Z,1.10
2023-05-16T06:47:34.675Z,1.35
2023-05-16T06:50:02.615Z,0.95
2023-05-16T06:52:32.715Z,1.30
2023-05-16T06:55:00.394Z,1.33
2023-05-16T06:57:29.366Z,1.40
2023-05-16T06:59:57.132Z,1.20
2023-05-16T07:02:24.924Z,1.20
2023-05-16T07:04:52.679Z,1.30
2023-05-16T07:07:20.264Z,2.13
2023-05-16T07:09:47.972Z,1.42
2023-05-16T07:12:15.588Z,1.35
2023-05-16T07:14:43.814Z,1.13
2023-05-16T07:17:11.893Z,1.30
2023-05-16T07:19:39.773Z,0.90
2023-05-16T07:22:07.424Z,1.20
2023-05-16T07:24:36.502Z,1.08
2023-05-16T07:27:04.429Z,1.45
2023-05-16T07:29:32.039Z,0.90
2023-05-16T07:31:59.626Z,0.98
2023-05-16T07:34:27.411Z,1.00
2023-05-16T07:36:54.985Z,0.95
2023-05-16T07:39:22.999Z,1.20
2023-05-16T07:41:50.626Z,1.20
2023-05-16T07:44:18.232Z,1.75
2023-05-16T07:46:46.203Z,1.27
2023-05-16T07:49:13.848Z,1.40
2023-05-16T07:51:41.353Z,1.10
2023-05-16T07:54:09.032Z,1.27
2023-05-16T07:56:36.841Z,1.13
2023-05-16T07:59:06.055Z,1.30
2023-05-16T08:01:33.870Z,1.00
2023-05-16T08:04:01.469Z,1.27
2023-05-16T08:06:29.971Z,1.38
2023-05-16T08:08:57.979Z,1.35
2023-05-16T08:11:25.710Z,0.95
2023-05-16T08:13:53.511Z,1.23
2023-05-16T08:16:21.303Z,1.58
2023-05-16T08:18:48.961Z,1.60
2023-05-16T08:21:16.900Z,1.27
2023-05-16T08:23:44.722Z,1.15
2023-05-16T08:26:12.838Z,1.30
2023-05-16T08:28:40.635Z,1.23
2023-05-16T08:31:08.454Z,0.90
2023-05-16T08:33:36.035Z,2.13
2023-05-16T08:36:03.959Z,1.50
2023-05-16T08:38:31.566Z,1.05
2023-05-16T08:40:59.223Z,1.50
2023-05-16T08:43:26.898Z,1.15
2023-05-16T08:45:54.634Z,1.27
2023-05-16T08:48:24.559Z,1.25
2023-05-16T08:50:53.441Z,1.08
2023-05-16T08:53:31.260Z,1.83
2023-05-16T08:56:00.527Z,0.90
2023-05-16T08:58:30.160Z,0.80
2023-05-16T09:00:58.151Z,1.33
2023-05-16T09:03:26.011Z,1.17
2023-05-16T09:05:53.737Z,1.20
2023-05-16T09:08:21.563Z,1.10
2023-05-16T09:10:49.230Z,1.00
2023-05-16T09:13:17.101Z,1.48
2023-05-16T09:15:45.747Z,1.45
2023-05-16T09:18:16.270Z,5.75
2023-05-16T09:20:50.365Z,1.80
2023-05-16T09:23:24.769Z,1.00
2023-05-16T09:25:56.457Z,1.42
2023-05-16T09:28:26.401Z,0.82
2023-05-16T09:30:55.848Z,0.90
2023-05-16T09:33:24.013Z,1.40
2023-05-16T09:36:01.910Z,1.60
2023-05-16T09:38:29.978Z,1.38
2023-05-16T09:40:57.638Z,1.33
2023-05-16T09:43:28.117Z,1.20
2023-05-16T09:45:59.921Z,1.10
2023-05-16T09:48:28.616Z,1.10
2023-05-16T09:50:57.979Z,1.30
2023-05-16T09:53:30.584Z,1.08
2023-05-16T09:56:06.866Z,1.40
2023-05-16T09:58:36.641Z,1.52
2023-05-16T10:01:06.029Z,1.40
2023-05-16T10:03:39.621Z,1.08
2023-05-16T10:06:08.269Z,1.63
2023-05-16T10:08:37.672Z,1.52
2023-05-16T10:11:07.038Z,1.35
2023-05-16T10:13:36.252Z,1.10
2023-05-16T10:16:11.446Z,1.45
2023-05-16T10:18:40.896Z,1.30
2023-05-16T10:21:13.669Z,0.90
2023-05-16T10:23:48.418Z,1.00
2023-05-16T10:26:17.956Z,1.10
2023-05-16T10:28:46.023Z,1.15
2023-05-16T10:31:14.787Z,1.40
2023-05-16T10:33:42.930Z,1.02
2023-05-16T10:36:11.442Z,0.82
2023-05-16T10:38:40.466Z,1.73
2023-05-16T10:41:08.982Z,0.93
2023-05-16T10:43:36.936Z,1.05
2023-05-16T10:46:10.013Z,1.30
2023-05-16T10:48:39.739Z,1.20
2023-05-16T10:51:22.456Z,0.95
2023-05-16T10:54:06.401Z,1.25
2023-05-16T10:56:35.353Z,1.20
2023-05-16T10:59:04.981Z,0.82
2023-05-16T11:01:36.488Z,1.23
2023-05-16T11:04:10.385Z,1.13
2023-05-16T11:06:41.185Z,0.95
2023-05-16T11:09:22.424Z,0.95
2023-05-16T11:11:53.392Z,1.23
2023-05-16T11:14:42.401Z,1.60
2023-05-16T11:17:15.604Z,1.60
2023-05-16T11:19:51.418Z,1.58
2023-05-16T11:22:19.190Z,1.00
2023-05-16T11:25:09.307Z,0.90
2023-05-16T11:27:43.896Z,1.10
2023-05-16T11:30:16.160Z,1.13
2023-05-16T11:32:46.054Z,1.13
2023-05-16T11:35:16.024Z,1.35
2023-05-16T11:37:45.313Z,1.02
2023-05-16T11:40:14.801Z,1.83
2023-05-16T11:42:44.943Z,1.10
2023-05-16T11:45:21.571Z,0.93
2023-05-16T11:47:49.836Z,1.10
2023-05-16T11:50:23.839Z,1.10
2023-05-16T11:52:54.224Z,1.20
2023-05-16T11:55:40.199Z,1.17
2023-05-16T11:58:10.446Z,1.70
2023-05-16T12:00:48.965Z,1.77
2023-05-16T12:03:18.610Z,1.42
2023-05-16T12:06:00.980Z,1.42
2023-05-16T12:08:28.995Z,0.90
2023-05-16T12:10:56.893Z,1.13
2023-05-16T12:13:25.809Z,1.50
2023-05-16T12:15:53.724Z,1.00
2023-05-16T12:18:22.158Z,1.40
2023-05-16T12:20:50.204Z,2.05
2023-05-16T12:23:17.809Z,1.48
2023-05-16T12:25:47.522Z,1.30
2023-05-16T12:28:16.305Z,1.70
2023-05-16T12:30:46.147Z,1.77
2023-05-16T12:33:16.484Z,1.23
2023-05-16T12:35:45.958Z,1.67
2023-05-16T12:38:15.260Z,1.10
2023-05-16T12:40:44.440Z,1.92
2023-05-16T12:43:23.199Z,2.10
2023-05-16T12:45:58.637Z,1.50
2023-05-16T12:48:35.875Z,1.30
2023-05-16T12:51:17.956Z,1.42
2023-05-16T12:54:05.825Z,1.05
2023-05-16T12:56:40.790Z,0.93
2023-05-16T12:59:09.435Z,1.00
2023-05-16T13:01:37.335Z,1.20
2023-05-16T13:04:05.958Z,1.10
2023-05-16T13:06:48.830Z,1.20
2023-05-16T13:09:18.224Z,1.75
2023-05-16T13:11:46.125Z,1.23
2023-05-16T13:14:13.838Z,1.13
2023-05-16T13:16:41.650Z,1.40
2023-05-16T13:19:09.754Z,1.40
2023-05-16T13:21:37.677Z,1.48
2023-05-16T13:24:05.782Z,1.67
2023-05-16T13:26:33.508Z,1.20
2023-05-16T13:29:03.382Z,1.20
2023-05-16T13:31:31.141Z,0.90
2023-05-16T13:33:59.157Z,0.95
2023-05-16T13:36:27.009Z,1.50
2023-05-16T13:38:55.227Z,1.40
2023-05-16T13:41:22.962Z,1.50
2023-05-16T13:43:50.810Z,1.25
2023-05-16T13:46:18.510Z,1.38
2023-05-16T13:48:46.139Z,2.30
2023-05-16T13:51:13.912Z,1.40
2023-05-16T13:53:41.551Z,1.27
2023-05-16T13:56:09.215Z,1.40
2023-05-16T13:58:43.020Z,1.48
2023-05-16T14:01:21.456Z,1.08
2023-05-16T14:03:49.111Z,1.20
2023-05-16T14:06:16.817Z,1.27
2023-05-16T14:08:44.468Z,1.25
2023-05-16T14:11:12.071Z,1.30
2023-05-16T14:13:40.477Z,2.03
2023-05-16T14:16:10.512Z,1.30
2023-05-16T14:18:38.195Z,1.30
2023-05-16T14:21:07.174Z,0.80
2023-05-16T14:23:36.230Z,1.45
2023-05-16T14:26:06.955Z,1.60
2023-05-16T14:28:35.486Z,1.33
2023-05-16T14:31:03.348Z,1.10
2023-05-16T14:33:33.501Z,1.20
2023-05-16T14:36:04.776Z,1.15
2023-05-16T14:38:36.750Z,1.30
2023-05-16T14:41:04.376Z,1.23
2023-05-16T14:43:32.593Z,1.48
2023-05-16T14:46:00.238Z,1.27
2023-05-16T14:48:28.121Z,1.50
2023-05-16T14:50:55.721Z,1.52
2023-05-16T14:53:24.038Z,1.60
2023-05-16T14:55:51.931Z,1.20
2023-05-16T14:58:23.079Z,1.33
2023-05-16T15:00:51.680Z,1.30
2023-05-16T15:03:20.376Z,2.20
2023-05-16T15:05:48.399Z,0.93
2023-05-16T15:08:16.162Z,1.45
2023-05-16T15:10:43.958Z,1.20
2023-05-16T15:13:11.601Z,1.58
2023-05-16T15:15:39.260Z,1.00
2023-05-16T15:18:07.078Z,1.30
2023-05-16T15:20:34.729Z,1.65
2023-05-16T15:23:02.302Z,1.30
2023-05-16T15:25:30.259Z,1.35
2023-05-16T15:27:58.125Z,1.25
2023-05-16T15:30:25.755Z,1.65
2023-05-16T15:32:53.566Z,1.20
2023-05-16T15:35:21.235Z,1.20
2023-05-16T15:37:48.977Z,1.20
2023-05-16T15:40:19.321Z,1.38
2023-05-16T15:42:48.984Z,1.50
2023-05-16T15:45:16.899Z,1.50
2023-05-16T15:47:44.663Z,1.30
2023-05-16T15:50:13.621Z,1.70
2023-05-16T15:52:41.505Z,1.98
2023-05-16T15:55:09.623Z,1.70
2023-05-16T15:57:37.811Z,1.42
2023-05-16T16:00:06.185Z,1.80
2023-05-16T16:02:40.426Z,1.67
2023-05-16T16:05:08.715Z,1.42
2023-05-16T16:07:36.771Z,1.75
2023-05-16T16:10:04.635Z,1.75
2023-05-16T16:12:32.873Z,1.75
2023-05-16T16:15:02.462Z,1.70
2023-05-16T16:17:33.450Z,1.60
2023-05-16T16:20:01.231Z,1.45
2023-05-16T16:22:29.390Z,1.40
2023-05-16T16:24:57.150Z,1.95
2023-05-16T16:27:24.886Z,1.83
2023-05-16T16:29:52.859Z,1.70
2023-05-16T16:32:20.767Z,2.22
2023-05-16T16:34:48.458Z,2.00
2023-05-16T16:37:16.209Z,1.80
2023-05-16T16:39:43.836Z,1.60
2023-05-16T16:42:11.713Z,2.45
2023-05-16T16:44:39.423Z,2.85
2023-05-16T16:47:07.393Z,1.85
2023-05-16T16:49:35.197Z,2.10
2023-05-16T16:52:02.820Z,1.73
2023-05-16T16:54:30.602Z,2.00
2023-05-16T16:56:58.185Z,2.55
2023-05-16T16:59:25.765Z,2.13
2023-05-16T17:01:53.541Z,2.42
2023-05-16T17:04:21.488Z,1.60
2023-05-16T17:06:49.231Z,2.10
2023-05-16T17:09:18.531Z,2.20
2023-05-16T17:11:46.926Z,3.20
2023-05-16T17:14:15.265Z,2.20
2023-05-16T17:16:43.095Z,2.03
2023-05-16T17:19:11.564Z,2.30
2023-05-16T17:21:40.898Z,2.45
2023-05-16T17:24:08.909Z,2.35
2023-05-16T17:26:36.841Z,2.00
2023-05-16T17:29:06.053Z,2.55
2023-05-16T17:31:38.098Z,2.55
2023-05-16T17:34:08.921Z,2.13
2023-05-16T17:36:37.268Z,1.98
2023-05-16T17:39:08.216Z,2.60
2023-05-16T17:41:36.390Z,2.53
2023-05-16T17:44:07.033Z,2.10
2023-05-16T17:46:37.068Z,2.47
2023-05-16T17:49:07.762Z,3.38
2023-05-16T17:51:52.641Z,2.05
2023-05-16T17:54:22.208Z,2.63
2023-05-16T17:56:51.100Z,2.63
2023-05-16T17:59:19.420Z,2.85
2023-05-16T18:01:47.615Z,2.65
2023-05-16T18:04:15.441Z,2.40
2023-05-16T18:06:44.242Z,2.33
2023-05-16T18:09:12.092Z,2.95
2023-05-16T18:11:40.780Z,3.13
2023-05-16T18:14:14.150Z,3.63
2023-05-16T18:16:41.954Z,3.35
2023-05-16T18:19:14.035Z,3.63
2023-05-16T18:21:44.464Z,4.00
2023-05-16T18:24:13.259Z,3.15
2023-05-16T18:26:41.027Z,3.25
2023-05-16T18:29:10.746Z,3.53
2023-05-16T18:31:41.324Z,3.70
2023-05-16T18:34:09.744Z,3.38
2023-05-16T18:36:37.561Z,3.75
2023-05-16T18:39:05.731Z,4.78
2023-05-16T18:41:33.444Z,3.20
2023-05-16T18:44:02.269Z,5.50
2023-05-16T18:46:44.301Z,3.10
2023-05-16T18:49:13.689Z,3.70
2023-05-16T18:51:41.591Z,2.95
2023-05-16T18:54:09.603Z,3.22
2023-05-16T18:56:37.290Z,3.17
2023-05-16T18:59:05.144Z,3.30
2023-05-16T19:01:33.087Z,3.42
2023-05-16T19:04:01.052Z,3.72
2023-05-16T19:06:29.017Z,3.65
2023-05-16T19:08:56.686Z,3.25
2023-05-16T19:11:24.326Z,3.13
2023-05-16T19:13:51.962Z,4.47
2023-05-16T19:16:19.567Z,3.22
2023-05-16T19:18:47.394Z,3.40
2023-05-16T19:21:15.870Z,3.95
2023-05-16T19:23:44.287Z,4.03
2023-05-16T19:26:11.992Z,3.67
2023-05-16T19:28:40.959Z,2.53
2023-05-16T19:31:10.153Z,3.20
2023-05-16T19:33:38.216Z,2.70
2023-05-16T19:36:06.424Z,3.10
2023-05-16T19:38:34.040Z,3.42
2023-05-16T19:41:01.869Z,3.25
2023-05-16T19:43:29.925Z,3.53
2023-05-16T19:45:58.283Z,3.08
2023-05-16T19:48:26.663Z,2.95
2023-05-16T19:50:54.391Z,3.33
2023-05-16T19:53:22.620Z,3.00
2023-05-16T19:55:50.363Z,3.22
2023-05-16T19:58:18.175Z,3.00
2023-05-16T20:00:47.128Z,3.50
2023-05-16T20:03:14.839Z,2.92
2023-05-16T20:05:42.904Z,3.80
2023-05-16T20:08:12.698Z,3.40
2023-05-16T20:10:42.412Z,3.50
2023-05-16T20:13:10.918Z,4.00
2023-05-16T20:15:38.703Z,2.92
2023-05-16T20:18:06.789Z,3.22
2023-05-16T20:20:34.863Z,3.10
2023-05-16T20:23:02.819Z,3.10
2023-05-16T20:25:32.197Z,4.13
2023-05-16T20:28:00.102Z,3.30
2023-05-16T20:30:28.523Z,3.13
2023-05-16T20:32:56.607Z,3.50
2023-05-16T20:35:24.817Z,3.88
2023-05-16T20:37:52.434Z,4.22
2023-05-16T20:40:20.540Z,3.72
2023-05-16T20:42:49.495Z,3.15
2023-05-16T20:45:17.309Z,3.58
2023-05-16T20:47:45.231Z,3.10
2023-05-16T20:50:13.028Z,4.35
2023-05-16T20:52:40.661Z,3.88
2023-05-16T20:55:09.152Z,3.92
2023-05-16T20:57:36.791Z,4.68
2023-05-16T21:00:05.360Z,4.43
2023-05-16T21:02:37.960Z,4.85
2023-05-16T21:05:20.186Z,4.40
2023-05-16T21:07:52.989Z,4.13
2023-05-16T21:10:20.871Z,3.83
2023-05-16T21:12:50.323Z,3.15
2023-05-16T21:15:18.414Z,3.60
2023-05-16T21:17:46.637Z,3.58
2023-05-16T21:20:14.385Z,3.97
2023-05-16T21:22:42.665Z,3.65
2023-05-16T21:25:10.535Z,3.92
2023-05-16T21:27:38.488Z,3.92
2023-05-16T21:30:07.004Z,3.67
2023-05-16T21:32:34.745Z,3.47
2023-05-16T21:35:04.365Z,4.30
2023-05-16T21:37:34.148Z,3.88
2023-05-16T21:40:02.097Z,4.50
2023-05-16T21:42:32.375Z,3.95
2023-05-16T21:45:00.150Z,4.80
2023-05-16T21:47:27.826Z,4.25
2023-05-16T21:49:55.520Z,3.47
2023-05-16T21:52:23.182Z,4.97
2023-05-16T21:54:52.046Z,4.35
2023-05-16T21:57:20.070Z,5.30
2023-05-16T21:59:50.638Z,3.72
2023-05-16T22:02:22.915Z,4.28
2023-05-16T22:04:52.439Z,4.90
2023-05-16T22:07:20.447Z,4.68
2023-05-16T22:09:50.974Z,4.78
2023-05-16T22:12:18.740Z,4.80
2023-05-16T22:14:46.420Z,5.03
2023-05-16T22:17:14.078Z,4.90
2023-05-16T22:19:42.550Z,4.57
2023-05-16T22:22:11.420Z,3.85
2023-05-16T22:24:39.080Z,5.00
2023-05-16T22:27:06.810Z,3.97
2023-05-16T22:29:38.300Z,3.45
2023-05-16T22:32:10.829Z,4.18
2023-05-16T22:34:41.676Z,4.32
2023-05-16T22:37:10.011Z,4.25
2023-05-16T22:39:37.719Z,4.18
2023-05-16T22:42:05.694Z,4.75
2023-05-16T22:44:33.416Z,3.72
2023-05-16T22:47:00.922Z,5.20
2023-05-16T22:49:28.553Z,3.70
2023-05-16T22:51:56.268Z,5.10
2023-05-16T22:54:23.895Z,4.30
2023-05-16T22:56:51.673Z,4.03
2023-05-16T22:59:19.340Z,3.80
2023-05-16T23:01:46.964Z,4.00
2023-05-16T23:04:14.602Z,4.18
2023-05-16T23:06:42.159Z,3.72
2023-05-16T23:09:09.845Z,3.97
2023-05-16T23:11:37.405Z,5.18
2023-05-16T23:14:05.158Z,4.30
2023-05-16T23:16:32.733Z,3.53
2023-05-16T23:19:00.505Z,2.70
2023-05-16T23:21:28.284Z,3.10
2023-05-16T23:23:55.922Z,2.97
2023-05-16T23:26:23.533Z,3.15
2023-05-16T23:28:51.583Z,4.78
2023-05-16T23:31:19.346Z,3.47
2023-05-16T23:33:47.076Z,3.88
2023-05-16T23:36:14.671Z,4.15
2023-05-16T23:38:42.374Z,3.53
2023-05-16T23:41:09.957Z,3.40
2023-05-16T23:43:37.659Z,3.10
2023-05-16T23:46:05.407Z,3.67
2023-05-16T23:48:33.312Z,5.05
2023-05-16T23:51:01.209Z,3.97
2023-05-16T23:53:31.145Z,3.58
2023-05-16T23:55:58.758Z,4.35
2023-05-16T23:58:26.495Z,4.40
